Observation data for Seagraves on 08/14/2019      Previous  Date  Next       Current Mesonet Observations  Soil Data  Daily Summary Page  Observations in Plain Language
KSGV 140500Z 07004KT 28/17 A3012 RMK A01 T02780172  RH  055%=      5-min Rain = 0
KSGV 140505Z 08004KT 28/17 A3012 RMK A01 T02770172  RH  056%=      5-min Rain = 0
KSGV 140510Z 07004KT 28/17 A3012 RMK A01 T02770172  RH  055%=      5-min Rain = 0
KSGV 140515Z 07004KT 28/17 A3012 RMK A01 T02770172  RH  055%=      5-min Rain = 0
KSGV 140520Z 07005KT 28/17 A3012 RMK A01 T02770172  RH  055%=      5-min Rain = 0
KSGV 140525Z 08005KT 28/17 A3012 RMK A01 T02770173  RH  056%=      5-min Rain = 0
KSGV 140530Z 07005KT 28/17 A3012 RMK A01 T02760174  RH  057%=      5-min Rain = 0
KSGV 140535Z 07005KT 28/18 A3012 RMK A01 T02760175  RH  057%=      5-min Rain = 0
KSGV 140540Z 07005KT 28/18 A3012 RMK A01 T02750175  RH  057%=      5-min Rain = 0
KSGV 140545Z 06005KT 27/18 A3012 RMK A01 T02740175  RH  057%=      5-min Rain = 0
KSGV 140550Z 07006KT 27/18 A3012 RMK A01 T02740175  RH  058%=      5-min Rain = 0
KSGV 140555Z 07006KT 27/18 A3012 RMK A01 T02730175  RH  058%=      5-min Rain = 0
KSGV 140600Z 07006KT 27/18 A3012 RMK A01 T02730175  RH  058%=      5-min Rain = 0
KSGV 140605Z 07007KT 27/18 A3012 RMK A01 T02740175  RH  058%=      5-min Rain = 0
KSGV 140610Z 07006G11KT 27/18 A3012 RMK A01 T02740176  RH  058%=      5-min Rain = 0
KSGV 140615Z 07005KT 27/18 A3013 RMK A01 T02720176  RH  059%=      5-min Rain = 0
KSGV 140620Z 07006KT 27/18 A3013 RMK A01 T02690176  RH  060%=      5-min Rain = 0
KSGV 140625Z 07006KT 27/18 A3013 RMK A01 T02670176  RH  061%=      5-min Rain = 0
KSGV 140630Z 07006KT 27/18 A3013 RMK A01 T02670176  RH  061%=      5-min Rain = 0
KSGV 140635Z 06006KT 27/18 A3013 RMK A01 T02660177  RH  061%=      5-min Rain = 0
KSGV 140640Z 07007KT 26/18 A3013 RMK A01 T02640177  RH  062%=      5-min Rain = 0
KSGV 140645Z 07006KT 26/18 A3013 RMK A01 T02630177  RH  062%=      5-min Rain = 0
KSGV 140650Z 08006KT 26/18 A3013 RMK A01 T02620177  RH  063%=      5-min Rain = 0
KSGV 140655Z 09005KT 26/18 A3012 RMK A01 T02620178  RH  063%=      5-min Rain = 0
KSGV 140700Z 09004KT 26/18 A3012 RMK A01 T02590177  RH  064%=      5-min Rain = 0
KSGV 140705Z 08004KT 26/18 A3012 RMK A01 T02570178  RH  065%=      5-min Rain = 0
KSGV 140710Z 08004KT 26/18 A3013 RMK A01 T02560178  RH  065%=      5-min Rain = 0
KSGV 140715Z 08004KT 26/18 A3012 RMK A01 T02550178  RH  066%=      5-min Rain = 0
KSGV 140720Z 08004KT 25/18 A3012 RMK A01 T02540178  RH  066%=      5-min Rain = 0
KSGV 140725Z 08003KT 25/18 A3012 RMK A01 T02530178  RH  066%=      5-min Rain = 0
KSGV 140730Z 08003KT 25/18 A3012 RMK A01 T02520178  RH  067%=      5-min Rain = 0
KSGV 140735Z 06003KT 25/18 A3012 RMK A01 T02520177  RH  066%=      5-min Rain = 0
KSGV 140740Z 07003KT 25/18 A3012 RMK A01 T02510176  RH  066%=      5-min Rain = 0
KSGV 140745Z 06005KT 25/18 A3012 RMK A01 T02510176  RH  066%=      5-min Rain = 0
KSGV 140750Z 06005KT 25/18 A3012 RMK A01 T02510177  RH  067%=      5-min Rain = 0
KSGV 140755Z 06005KT 25/18 A3012 RMK A01 T02510178  RH  067%=      5-min Rain = 0
KSGV 140800Z 07005KT 25/18 A3012 RMK A01 T02500177  RH  067%=      5-min Rain = 0
KSGV 140805Z 06005KT 25/18 A3013 RMK A01 T02490178  RH  068%=      5-min Rain = 0
KSGV 140810Z 07004KT 25/18 A3013 RMK A01 T02480177  RH  068%=      5-min Rain = 0
KSGV 140815Z 06005KT 25/18 A3013 RMK A01 T02470177  RH  069%=      5-min Rain = 0
KSGV 140820Z 06006KT 25/18 A3013 RMK A01 T02470177  RH  069%=      5-min Rain = 0
KSGV 140825Z 06006KT 25/18 A3013 RMK A01 T02470177  RH  069%=      5-min Rain = 0
KSGV 140830Z 06007G12KT 25/18 A3013 RMK A01 T02470177  RH  069%=      5-min Rain = 0
KSGV 140835Z 06008KT 25/18 A3013 RMK A01 T02470177  RH  069%=      5-min Rain = 0
KSGV 140840Z 07007KT 25/18 A3012 RMK A01 T02470177  RH  069%=      5-min Rain = 0
KSGV 140845Z 06008KT 25/18 A3012 RMK A01 T02460177  RH  069%=      5-min Rain = 0
KSGV 140850Z 06008G14KT 25/18 A3012 RMK A01 T02460178  RH  069%=      5-min Rain = 0
KSGV 140855Z 06008G13KT 25/18 A3012 RMK A01 T02460178  RH  069%=      5-min Rain = 0
KSGV 140900Z 06006G11KT 25/18 A3012 RMK A01 T02460178  RH  070%=      5-min Rain = 0
KSGV 140905Z 06007KT 25/18 A3012 RMK A01 T02450178  RH  070%=      5-min Rain = 0
KSGV 140910Z 05007G12KT 25/18 A3012 RMK A01 T02450178  RH  070%=      5-min Rain = 0
KSGV 140915Z 06007G12KT 25/18 A3013 RMK A01 T02450178  RH  070%=      5-min Rain = 0
KSGV 140920Z 05007G12KT 24/18 A3013 RMK A01 T02440178  RH  070%=      5-min Rain = 0
KSGV 140925Z 06007KT 24/18 A3013 RMK A01 T02430179  RH  071%=      5-min Rain = 0
KSGV 140930Z 05007G14KT 24/18 A3012 RMK A01 T02420178  RH  071%=      5-min Rain = 0
KSGV 140935Z 05007KT 24/18 A3012 RMK A01 T02420178  RH  071%=      5-min Rain = 0
KSGV 140940Z 06006G11KT 24/18 A3012 RMK A01 T02410178  RH  071%=      5-min Rain = 0
KSGV 140945Z 06007KT 24/18 A3012 RMK A01 T02410178  RH  072%=      5-min Rain = 0
KSGV 140950Z 06005KT 24/18 A3012 RMK A01 T02410178  RH  072%=      5-min Rain = 0
KSGV 140955Z 06005KT 24/18 A3012 RMK A01 T02400179  RH  072%=      5-min Rain = 0
KSGV 141000Z 06005KT 24/18 A3012 RMK A01 T02390179  RH  073%=      5-min Rain = 0
KSGV 141005Z 06005KT 24/18 A3012 RMK A01 T02390179  RH  073%=      5-min Rain = 0
KSGV 141010Z 06006KT 24/18 A3012 RMK A01 T02390179  RH  073%=      5-min Rain = 0
KSGV 141015Z 06005KT 24/18 A3012 RMK A01 T02390179  RH  073%=      5-min Rain = 0
KSGV 141020Z 05005KT 24/18 A3013 RMK A01 T02380179  RH  073%=      5-min Rain = 0
KSGV 141025Z 04005KT 24/18 A3013 RMK A01 T02370179  RH  073%=      5-min Rain = 0
KSGV 141030Z 04006KT 24/18 A3013 RMK A01 T02360178  RH  074%=      5-min Rain = 0
KSGV 141035Z 05006KT 24/18 A3013 RMK A01 T02360178  RH  074%=      5-min Rain = 0
KSGV 141040Z 04006KT 24/18 A3013 RMK A01 T02350178  RH  074%=      5-min Rain = 0
KSGV 141045Z 05005KT 24/18 A3013 RMK A01 T02350178  RH  074%=      5-min Rain = 0
KSGV 141050Z 05006KT 24/18 A3013 RMK A01 T02350178  RH  074%=      5-min Rain = 0
KSGV 141055Z 05006G11KT 24/18 A3013 RMK A01 T02350178  RH  074%=      5-min Rain = 0
KSGV 141100Z 05007KT 24/18 A3014 RMK A01 T02350178  RH  074%=      5-min Rain = 0
KSGV 141105Z 04005KT 24/18 A3014 RMK A01 T02350178  RH  074%=      5-min Rain = 0
KSGV 141110Z 03006KT 23/18 A3014 RMK A01 T02330177  RH  075%=      5-min Rain = 0
KSGV 141115Z 03006KT 23/18 A3014 RMK A01 T02310177  RH  075%=      5-min Rain = 0
KSGV 141120Z 03006KT 23/18 A3014 RMK A01 T02300176  RH  075%=      5-min Rain = 0
KSGV 141125Z 04006KT 23/18 A3014 RMK A01 T02300176  RH  076%=      5-min Rain = 0
KSGV 141130Z 04006KT 23/18 A3014 RMK A01 T02290176  RH  076%=      5-min Rain = 0
KSGV 141135Z 04007KT 23/18 A3015 RMK A01 T02280176  RH  076%=      5-min Rain = 0
KSGV 141140Z 04006G11KT 23/18 A3015 RMK A01 T02290175  RH  076%=      5-min Rain = 0
KSGV 141145Z 04008KT 23/18 A3015 RMK A01 T02280175  RH  076%=      5-min Rain = 0
KSGV 141150Z 04008G13KT 23/17 A3015 RMK A01 T02280174  RH  075%=      5-min Rain = 0
KSGV 141155Z 04008G13KT 23/17 A3015 RMK A01 T02290174  RH  075%=      5-min Rain = 0
KSGV 141200Z 05008G14KT 23/17 A3016 RMK A01 T02290174  RH  075%=      5-min Rain = 0
KSGV 141205Z 05008G13KT 23/17 A3016 RMK A01 T02300174  RH  074%=      5-min Rain = 0
KSGV 141210Z 04007G12KT 23/17 A3017 RMK A01 T02290174  RH  075%=      5-min Rain = 0
KSGV 141215Z 05009G14KT 23/17 A3017 RMK A01 T02280174  RH  075%=      5-min Rain = 0
KSGV 141220Z 04009G14KT 23/17 A3017 RMK A01 T02280174  RH  075%=      5-min Rain = 0
KSGV 141225Z 05009G16KT 23/17 A3017 RMK A01 T02280174  RH  075%=      5-min Rain = 0
KSGV 141230Z 05010G16KT 23/17 A3017 RMK A01 T02290173  RH  075%=      5-min Rain = 0
KSGV 141235Z 05008G16KT 23/17 A3017 RMK A01 T02290173  RH  075%=      5-min Rain = 0
KSGV 141240Z 04010G17KT 23/17 A3018 RMK A01 T02290173  RH  074%=      5-min Rain = 0
KSGV 141245Z 05011G20KT 23/17 A3018 RMK A01 T02300172  RH  074%=      5-min Rain = 0
KSGV 141250Z 05012G18KT 23/17 A3018 RMK A01 T02300171  RH  073%=      5-min Rain = 0
KSGV 141255Z 05010KT 23/17 A3018 RMK A01 T02300170  RH  073%=      5-min Rain = 0
KSGV 141300Z 04012G18KT 23/17 A3019 RMK A01 T02290170  RH  073%=      5-min Rain = 0
KSGV 141305Z 04013G21KT 23/17 A3019 RMK A01 T02270169  RH  073%=      5-min Rain = 0
KSGV 141310Z 05012G22KT 23/17 A3019 RMK A01 T02260169  RH  074%=      5-min Rain = 0
KSGV 141315Z 05012G19KT 23/17 A302 RMK A01 T02270169  RH  074%=      5-min Rain = 0
KSGV 141320Z 05012G19KT 23/17 A302 RMK A01 T02270170  RH  074%=      5-min Rain = 0
KSGV 141325Z 04012G19KT 23/17 A302 RMK A01 T02290170  RH  073%=      5-min Rain = 0
KSGV 141330Z 04012G19KT 23/17 A3021 RMK A01 T02300171  RH  073%=      5-min Rain = 0
KSGV 141335Z 04013G20KT 23/17 A3021 RMK A01 T02300171  RH  073%=      5-min Rain = 0
KSGV 141340Z 04013G21KT 23/17 A3021 RMK A01 T02290170  RH  073%=      5-min Rain = 0
KSGV 141345Z 04014G22KT 23/17 A3022 RMK A01 T02280168  RH  072%=      5-min Rain = 0
KSGV 141350Z 03015G24KT 23/16 A3022 RMK A01 T02290164  RH  070%=      5-min Rain = 0
KSGV 141355Z 04015G21KT 23/16 A3023 RMK A01 T02290160  RH  068%=      5-min Rain = 0
KSGV 141400Z 04012G19KT 23/16 A3023 RMK A01 T02290159  RH  068%=      5-min Rain = 0
KSGV 141405Z 03011G18KT 23/16 A3023 RMK A01 T02330161  RH  067%=      5-min Rain = 0
KSGV 141410Z 04016G24KT 23/16 A3024 RMK A01 T02310158  RH  066%=      5-min Rain = 0
KSGV 141415Z 04014G22KT 23/16 A3024 RMK A01 T02270156  RH  067%=      5-min Rain = 0
KSGV 141420Z 04014G21KT 23/16 A3024 RMK A01 T02280156  RH  066%=      5-min Rain = 0
KSGV 141425Z 04014G21KT 23/16 A3024 RMK A01 T02300155  RH  065%=      5-min Rain = 0
KSGV 141430Z 04014G21KT 23/16 A3025 RMK A01 T02330155  RH  064%=      5-min Rain = 0
KSGV 141435Z 04013G21KT 24/16 A3025 RMK A01 T02370156  RH  063%=      5-min Rain = 0
KSGV 141440Z 04013G21KT 24/16 A3025 RMK A01 T02390156  RH  062%=      5-min Rain = 0
KSGV 141445Z 04013G21KT 24/16 A3025 RMK A01 T02420156  RH  061%=      5-min Rain = 0
KSGV 141450Z 04015G22KT 24/16 A3025 RMK A01 T02420155  RH  061%=      5-min Rain = 0
KSGV 141455Z 04013G23KT 24/16 A3025 RMK A01 T02440156  RH  061%=      5-min Rain = 0
KSGV 141500Z 04013G21KT 24/16 A3025 RMK A01 T02440155  RH  060%=      5-min Rain = 0
KSGV 141505Z 05013G21KT 25/16 A3025 RMK A01 T02460155  RH  060%=      5-min Rain = 0
KSGV 141510Z 04014G19KT 25/16 A3025 RMK A01 T02460155  RH  060%=      5-min Rain = 0
KSGV 141515Z 05012G18KT 25/16 A3025 RMK A01 T02500156  RH  059%=      5-min Rain = 0
KSGV 141520Z 04012G19KT 25/16 A3025 RMK A01 T02540157  RH  058%=      5-min Rain = 0
KSGV 141525Z 04013G21KT 26/16 A3025 RMK A01 T02610158  RH  055%=      5-min Rain = 0
KSGV 141530Z 04011G18KT 26/16 A3024 RMK A01 T02640158  RH  055%=      5-min Rain = 0
KSGV 141535Z 05013G19KT 27/16 A3024 RMK A01 T02680157  RH  053%=      5-min Rain = 0
KSGV 141540Z 05012G18KT 27/16 A3024 RMK A01 T02700156  RH  052%=      5-min Rain = 0
KSGV 141545Z 05011G18KT 27/16 A3024 RMK A01 T02730156  RH  051%=      5-min Rain = 0
KSGV 141550Z 05011G17KT 28/15 A3024 RMK A01 T02770154  RH  049%=      5-min Rain = 0
KSGV 141555Z 03012G22KT 28/15 A3024 RMK A01 T02750153  RH  049%=      5-min Rain = 0
KSGV 141600Z 03016G22KT 27/15 A3024 RMK A01 T02710152  RH  051%=      5-min Rain = 0
KSGV 141605Z 03014G19KT 27/15 A3024 RMK A01 T02670152  RH  052%=      5-min Rain = 0
KSGV 141610Z 03011G16KT 27/15 A3024 RMK A01 T02740154  RH  050%=      5-min Rain = 0
KSGV 141615Z 04013G21KT 28/15 A3024 RMK A01 T02790153  RH  048%=      5-min Rain = 0
KSGV 141620Z 03012G19KT 28/15 A3024 RMK A01 T02830153  RH  047%=      5-min Rain = 0
KSGV 141625Z 03013G22KT 29/15 A3024 RMK A01 T02860154  RH  047%=      5-min Rain = 0
KSGV 141630Z 03012G20KT 28/15 A3024 RMK A01 T02820154  RH  048%=      5-min Rain = 0
KSGV 141635Z 03010G16KT 28/16 A3023 RMK A01 T02840155  RH  048%=      5-min Rain = 0
KSGV 141640Z 02010G16KT 29/16 A3023 RMK A01 T02870156  RH  047%=      5-min Rain = 0
KSGV 141645Z 04010G15KT 29/15 A3023 RMK A01 T02910153  RH  045%=      5-min Rain = 0
KSGV 141650Z 04013G20KT 29/15 A3023 RMK A01 T02910149  RH  044%=      5-min Rain = 0
KSGV 141655Z 03014G21KT 29/15 A3022 RMK A01 T02920149  RH  044%=      5-min Rain = 0
KSGV 141700Z 04011G16KT 30/15 A3022 RMK A01 T02950150  RH  043%=      5-min Rain = 0
KSGV 141705Z 05011G16KT 30/15 A3022 RMK A01 T02990150  RH  042%=      5-min Rain = 0
KSGV 141710Z 04010G17KT 30/15 A3022 RMK A01 T02970150  RH  043%=      5-min Rain = 0
KSGV 141715Z 06010G15KT 30/15 A3021 RMK A01 T02990149  RH  042%=      5-min Rain = 0
KSGV 141720Z 06009G16KT 30/15 A3021 RMK A01 T03030149  RH  041%=      5-min Rain = 0
KSGV 141725Z 05010G15KT 30/15 A302 RMK A01 T03040146  RH  040%=      5-min Rain = 0
KSGV 141730Z 07011G18KT 30/14 A302 RMK A01 T03030143  RH  039%=      5-min Rain = 0
KSGV 141735Z 07011G18KT 31/14 A302 RMK A01 T03060140  RH  038%=      5-min Rain = 0
KSGV 141740Z 08009G16KT 31/14 A3019 RMK A01 T03090141  RH  038%=      5-min Rain = 0
KSGV 141745Z 06009G17KT 31/14 A3019 RMK A01 T03110142  RH  038%=      5-min Rain = 0
KSGV 141750Z 08009G16KT 31/14 A3019 RMK A01 T03120144  RH  038%=      5-min Rain = 0
KSGV 141755Z 08011G16KT 31/14 A3019 RMK A01 T03110144  RH  038%=      5-min Rain = 0
KSGV 141800Z 09013G19KT 31/14 A3019 RMK A01 T03090139  RH  037%=      5-min Rain = 0
KSGV 141805Z 09011G17KT 31/14 A3019 RMK A01 T03110139  RH  037%=      5-min Rain = 0
KSGV 141810Z 08010G16KT 32/14 A3018 RMK A01 T03160142  RH  036%=      5-min Rain = 0
KSGV 141815Z 08011G17KT 32/14 A3018 RMK A01 T03150141  RH  036%=      5-min Rain = 0
KSGV 141820Z 09010G16KT 32/14 A3018 RMK A01 T03180143  RH  036%=      5-min Rain = 0
KSGV 141825Z 09010G18KT 32/14 A3018 RMK A01 T03190143  RH  036%=      5-min Rain = 0
KSGV 141830Z 09010G17KT 32/14 A3018 RMK A01 T03190141  RH  036%=      5-min Rain = 0
KSGV 141835Z 08008G17KT 32/14 A3018 RMK A01 T03210139  RH  035%=      5-min Rain = 0
KSGV 141840Z 08009G16KT 32/14 A3018 RMK A01 T03210138  RH  034%=      5-min Rain = 0
KSGV 141845Z 09009KT 33/14 A3018 RMK A01 T03250143  RH  035%=      5-min Rain = 0
KSGV 141850Z 09009G15KT 33/14 A3018 RMK A01 T03250143  RH  035%=      5-min Rain = 0
KSGV 141855Z 09007G15KT 33/14 A3018 RMK A01 T03260143  RH  035%=      5-min Rain = 0
KSGV 141900Z 08009G15KT 33/14 A3018 RMK A01 T03270143  RH  034%=      5-min Rain = 0
KSGV 141905Z 08008G13KT 33/14 A3018 RMK A01 T03270143  RH  034%=      5-min Rain = 0
KSGV 141910Z 08009G16KT 33/14 A3018 RMK A01 T03310141  RH  033%=      5-min Rain = 0
KSGV 141915Z 08008G14KT 33/14 A3018 RMK A01 T03250140  RH  034%=      5-min Rain = 0
KSGV 141920Z 08008G15KT 33/14 A3018 RMK A01 T03310144  RH  034%=      5-min Rain = 0
KSGV 141925Z 09007G13KT 33/14 A3018 RMK A01 T03310144  RH  034%=      5-min Rain = 0
KSGV 141930Z 09006KT 33/14 A3017 RMK A01 T03320144  RH  034%=      5-min Rain = 0
KSGV 141935Z 09007G12KT 33/14 A3017 RMK A01 T03340141  RH  033%=      5-min Rain = 0
KSGV 141940Z 08008KT 34/14 A3017 RMK A01 T03370141  RH  032%=      5-min Rain = 0
KSGV 141945Z 08009G16KT 33/14 A3017 RMK A01 T03340138  RH  032%=      5-min Rain = 0
KSGV 141950Z 06007KT 34/13 A3017 RMK A01 T03370133  RH  030%=      5-min Rain = 0
KSGV 141955Z 03007G13KT 34/13 A3016 RMK A01 T03390128  RH  029%=      5-min Rain = 0
KSGV 142000Z 09007G12KT 34/14 A3016 RMK A01 T03390141  RH  032%=      5-min Rain = 0
KSGV 142005Z 09007G13KT 34/14 A3016 RMK A01 T03360139  RH  032%=      5-min Rain = 0
KSGV 142010Z 09007KT 34/14 A3015 RMK A01 T03380140  RH  032%=      5-min Rain = 0
KSGV 142015Z 10006G12KT 34/14 A3015 RMK A01 T03390143  RH  032%=      5-min Rain = 0
KSGV 142020Z 10008G16KT 34/14 A3014 RMK A01 T03390142  RH  032%=      5-min Rain = 0
KSGV 142025Z 10008G16KT 34/14 A3014 RMK A01 T03380137  RH  031%=      5-min Rain = 0
KSGV 142030Z 08007G12KT 34/14 A3014 RMK A01 T03400137  RH  031%=      5-min Rain = 0
KSGV 142035Z 06010G17KT 35/13 A3014 RMK A01 T03450131  RH  029%=      5-min Rain = 0
KSGV 142040Z 06008KT 34/13 A3013 RMK A01 T03420128  RH  029%=      5-min Rain = 0
KSGV 142045Z 06010G17KT 34/13 A3013 RMK A01 T03420127  RH  028%=      5-min Rain = 0
KSGV 142050Z 05007G13KT 34/13 A3013 RMK A01 T03390125  RH  028%=      5-min Rain = 0
KSGV 142055Z 08008G14KT 34/12 A3013 RMK A01 T03410122  RH  028%=      5-min Rain = 0
KSGV 142100Z 07007KT 34/12 A3013 RMK A01 T03410122  RH  027%=      5-min Rain = 0
KSGV 142105Z 05007G14KT 35/12 A3012 RMK A01 T03460121  RH  027%=      5-min Rain = 0
KSGV 142110Z 08008G13KT 35/12 A3012 RMK A01 T03470115  RH  026%=      5-min Rain = 0
KSGV 142115Z 07009G15KT 35/11 A3012 RMK A01 T03450114  RH  026%=      5-min Rain = 0
KSGV 142120Z 05005KT 34/11 A3011 RMK A01 T03420112  RH  026%=      5-min Rain = 0
KSGV 142125Z 09007G12KT 35/11 A3011 RMK A01 T03470113  RH  025%=      5-min Rain = 0
KSGV 142130Z 08008G13KT 35/11 A3011 RMK A01 T03480106  RH  024%=      5-min Rain = 0
KSGV 142135Z 06010G16KT 35/10 A3011 RMK A01 T03520104  RH  023%=      5-min Rain = 0
KSGV 142140Z 05007G13KT 35/10 A3011 RMK A01 T03520101  RH  022%=      5-min Rain = 0
KSGV 142145Z 04008KT 35/10 A3011 RMK A01 T03530098  RH  022%=      5-min Rain = 0
KSGV 142150Z 05007G12KT 35/10 A3011 RMK A01 T03520099  RH  022%=      5-min Rain = 0
KSGV 142155Z 09006G14KT 35/10 A301 RMK A01 T03520103  RH  023%=      5-min Rain = 0
KSGV 142200Z 08008G14KT 35/10 A301 RMK A01 T03490102  RH  023%=      5-min Rain = 0
KSGV 142205Z 07008G14KT 35/10 A301 RMK A01 T03480099  RH  023%=      5-min Rain = 0
KSGV 142210Z 07009G15KT 35/10 A301 RMK A01 T03470096  RH  022%=      5-min Rain = 0
KSGV 142215Z 08006KT 35/10 A301 RMK A01 T03510096  RH  022%=      5-min Rain = 0
KSGV 142220Z 07007KT 35/10 A3009 RMK A01 T03520097  RH  022%=      5-min Rain = 0
KSGV 142225Z 07007G14KT 35/10 A3009 RMK A01 T03480098  RH  023%=      5-min Rain = 0
KSGV 142230Z 07006G12KT 35/10 A3009 RMK A01 T03520103  RH  023%=      5-min Rain = 0
KSGV 142235Z 09006G12KT 35/10 A3009 RMK A01 T03520101  RH  022%=      5-min Rain = 0
KSGV 142240Z 09008G13KT 35/10 A3009 RMK A01 T03530104  RH  023%=      5-min Rain = 0
KSGV 142245Z 08005KT 35/10 A3009 RMK A01 T03490104  RH  023%=      5-min Rain = 0
KSGV 142250Z 08007KT 35/10 A3009 RMK A01 T03480104  RH  023%=      5-min Rain = 0
KSGV 142255Z 13005KT 35/10 A3008 RMK A01 T03500104  RH  023%=      5-min Rain = 0
KSGV 142300Z 11009G14KT 35/10 A3008 RMK A01 T03510104  RH  023%=      5-min Rain = 0
KSGV 142305Z 13009G15KT 35/10 A3008 RMK A01 T03470102  RH  023%=      5-min Rain = 0
KSGV 142310Z 09007KT 35/10 A3008 RMK A01 T03490099  RH  023%=      5-min Rain = 0
KSGV 142315Z 11007G12KT 35/10 A3009 RMK A01 T03480096  RH  022%=      5-min Rain = 0
KSGV 142320Z 08008G15KT 35/10 A3008 RMK A01 T03460100  RH  023%=      5-min Rain = 0
KSGV 142325Z 11008KT 35/10 A3008 RMK A01 T03480101  RH  023%=      5-min Rain = 0
KSGV 142330Z 11007KT 35/10 A3008 RMK A01 T03450102  RH  023%=      5-min Rain = 0
KSGV 142335Z 12008G13KT 35/10 A3008 RMK A01 T03470103  RH  023%=      5-min Rain = 0
KSGV 142340Z 12008G14KT 34/10 A3008 RMK A01 T03440103  RH  024%=      5-min Rain = 0
KSGV 142345Z 09006G11KT 35/11 A3007 RMK A01 T03470105  RH  024%=      5-min Rain = 0
KSGV 142350Z 10008G13KT 35/10 A3008 RMK A01 T03460103  RH  024%=      5-min Rain = 0
KSGV 142355Z 11006KT 34/10 A3008 RMK A01 T03440103  RH  024%=      5-min Rain = 0
KSGV 150000Z 12007G13KT 35/10 A3008 RMK A01 T03450103  RH  024%=      5-min Rain = 0
KSGV 150005Z 09008KT 34/10 A3008 RMK A01 T03430101  RH  024%=      5-min Rain = 0
KSGV 150010Z 10005KT 34/10 A3008 RMK A01 T03430103  RH  024%=      5-min Rain = 0
KSGV 150015Z 10008KT 34/10 A3008 RMK A01 T03440103  RH  024%=      5-min Rain = 0
KSGV 150020Z 10009G14KT 34/10 A3008 RMK A01 T03420102  RH  024%=      5-min Rain = 0
KSGV 150025Z 11008KT 34/10 A3008 RMK A01 T03380102  RH  024%=      5-min Rain = 0
KSGV 150030Z 10006KT 34/10 A3009 RMK A01 T03390102  RH  024%=      5-min Rain = 0
KSGV 150035Z 10006G12KT 34/10 A3009 RMK A01 T03390102  RH  024%=      5-min Rain = 0
KSGV 150040Z 10007KT 34/10 A3009 RMK A01 T03380100  RH  024%=      5-min Rain = 0
KSGV 150045Z 11008KT 34/10 A3009 RMK A01 T03350099  RH  024%=      5-min Rain = 0
KSGV 150050Z 11006KT 33/10 A3009 RMK A01 T03340098  RH  024%=      5-min Rain = 0
KSGV 150055Z 09007KT 33/10 A3009 RMK A01 T03340101  RH  025%=      5-min Rain = 0
KSGV 150100Z 09006KT 33/10 A3009 RMK A01 T03320101  RH  025%=      5-min Rain = 0
KSGV 150105Z 09004KT 33/10 A3009 RMK A01 T03300102  RH  026%=      5-min Rain = 0
KSGV 150110Z 09006KT 33/10 A3009 RMK A01 T03280104  RH  026%=      5-min Rain = 0
KSGV 150115Z 09005KT 33/11 A301 RMK A01 T03250106  RH  027%=      5-min Rain = 0
KSGV 150120Z 09005KT 32/11 A301 RMK A01 T03220106  RH  027%=      5-min Rain = 0
KSGV 150125Z 09004KT 32/11 A301 RMK A01 T03200106  RH  028%=      5-min Rain = 0
KSGV 150130Z 08004KT 32/11 A301 RMK A01 T03160107  RH  029%=      5-min Rain = 0
KSGV 150135Z 08003KT 31/11 A3011 RMK A01 T03130108  RH  029%=      5-min Rain = 0
KSGV 150140Z 08004KT 31/11 A3011 RMK A01 T03120106  RH  029%=      5-min Rain = 0
KSGV 150145Z 08004KT 31/11 A3011 RMK A01 T03120106  RH  029%=      5-min Rain = 0
KSGV 150150Z 08003KT 31/11 A3011 RMK A01 T03110107  RH  029%=      5-min Rain = 0
KSGV 150155Z 08003KT 31/11 A3011 RMK A01 T03090108  RH  030%=      5-min Rain = 0
KSGV 150200Z 09004KT 31/11 A3011 RMK A01 T03080108  RH  030%=      5-min Rain = 0
KSGV 150205Z 09004KT 31/11 A3012 RMK A01 T03060109  RH  031%=      5-min Rain = 0
KSGV 150210Z 09004KT 30/11 A3012 RMK A01 T03030110  RH  031%=      5-min Rain = 0
KSGV 150215Z 09004KT 30/11 A3013 RMK A01 T03010111  RH  032%=      5-min Rain = 0
KSGV 150220Z 08003KT 30/11 A3013 RMK A01 T02990113  RH  033%=      5-min Rain = 0
KSGV 150225Z 08004KT 30/11 A3013 RMK A01 T02970114  RH  033%=      5-min Rain = 0
KSGV 150230Z 09005KT 30/12 A3013 RMK A01 T02970116  RH  034%=      5-min Rain = 0
KSGV 150235Z 11004KT 29/12 A3013 RMK A01 T02940118  RH  035%=      5-min Rain = 0
KSGV 150240Z 10004G9KT 29/12 A3013 RMK A01 T02910118  RH  036%=      5-min Rain = 0
KSGV 150245Z 11004KT 29/12 A3014 RMK A01 T02900119  RH  036%=      5-min Rain = 0
KSGV 150250Z 10004KT 29/12 A3014 RMK A01 T02890121  RH  037%=      5-min Rain = 0
KSGV 150255Z 10003KT 29/12 A3014 RMK A01 T02880122  RH  037%=      5-min Rain = 0
KSGV 150300Z 09004KT 29/12 A3014 RMK A01 T02870123  RH  038%=      5-min Rain = 0
KSGV 150305Z 11004KT 29/12 A3014 RMK A01 T02850123  RH  038%=      5-min Rain = 0
KSGV 150310Z 10004KT 28/12 A3014 RMK A01 T02840123  RH  038%=      5-min Rain = 0
KSGV 150315Z 10004KT 28/12 A3014 RMK A01 T02830123  RH  039%=      5-min Rain = 0
KSGV 150320Z 10004KT 28/12 A3015 RMK A01 T02820123  RH  039%=      5-min Rain = 0
KSGV 150325Z 11005KT 28/13 A3015 RMK A01 T02820125  RH  039%=      5-min Rain = 0
KSGV 150330Z 10005KT 28/13 A3015 RMK A01 T02800125  RH  040%=      5-min Rain = 0
KSGV 150335Z 11004KT 28/13 A3015 RMK A01 T02780126  RH  041%=      5-min Rain = 0
KSGV 150340Z 10004KT 28/13 A3015 RMK A01 T02770126  RH  041%=      5-min Rain = 0
KSGV 150345Z 11004KT 28/13 A3015 RMK A01 T02750126  RH  041%=      5-min Rain = 0
KSGV 150350Z 11005KT 27/13 A3015 RMK A01 T02740128  RH  042%=      5-min Rain = 0
KSGV 150355Z 11004KT 27/13 A3015 RMK A01 T02730129  RH  042%=      5-min Rain = 0
KSGV 150400Z 11004KT 27/13 A3016 RMK A01 T02710130  RH  043%=      5-min Rain = 0
KSGV 150405Z 12004KT 27/13 A3016 RMK A01 T02700131  RH  044%=      5-min Rain = 0
KSGV 150410Z 11004KT 27/13 A3016 RMK A01 T02680131  RH  045%=      5-min Rain = 0
KSGV 150415Z 12005KT 27/13 A3016 RMK A01 T02670132  RH  045%=      5-min Rain = 0
KSGV 150420Z 13004KT 27/13 A3016 RMK A01 T02650133  RH  046%=      5-min Rain = 0
KSGV 150425Z 16005KT 26/13 A3017 RMK A01 T02600130  RH  046%=      5-min Rain = 0
KSGV 150430Z 16006KT 26/13 A3017 RMK A01 T02560130  RH  048%=      5-min Rain = 0
KSGV 150435Z 16008KT 26/14 A3017 RMK A01 T02610136  RH  048%=      5-min Rain = 0
KSGV 150440Z 16007KT 27/14 A3017 RMK A01 T02650138  RH  047%=      5-min Rain = 0
KSGV 150445Z 16007KT 26/14 A3017 RMK A01 T02640140  RH  048%=      5-min Rain = 0
KSGV 150450Z 16006KT 27/14 A3017 RMK A01 T02650142  RH  049%=      5-min Rain = 0
KSGV 150455Z 16004KT 26/14 A3017 RMK A01 T02630143  RH  049%=      5-min Rain = 0

Page generated in 0.0106 seconds.